createdAt,value
2024-03-12T00:00:15.219Z,93.98
2024-03-12T00:02:45.777Z,94.18
2024-03-12T00:05:19.021Z,94.28
2024-03-12T00:07:47.294Z,94.71
2024-03-12T00:10:17.480Z,94.95
2024-03-12T00:12:48.430Z,95.15
2024-03-12T00:15:17.709Z,95.38
2024-03-12T00:17:45.567Z,95.31
2024-03-12T00:20:24.802Z,95.42
2024-03-12T00:22:51.596Z,95.72
2024-03-12T00:25:19.867Z,95.77
2024-03-12T00:27:47.268Z,95.74
2024-03-12T00:30:15.601Z,95.70
2024-03-12T00:32:44.022Z,95.97
2024-03-12T00:35:13.658Z,96.13
2024-03-12T00:37:41.908Z,96.33
2024-03-12T00:40:13.172Z,96.36
2024-03-12T00:42:44.021Z,96.56
2024-03-12T00:45:12.272Z,96.90
2024-03-12T00:47:41.541Z,97.29
2024-03-12T00:50:11.946Z,97.47
2024-03-12T00:52:40.777Z,97.62
2024-03-12T00:55:10.881Z,97.40
2024-03-12T00:57:39.229Z,97.68
2024-03-12T01:00:26.522Z,97.50
2024-03-12T01:02:55.627Z,97.69
2024-03-12T01:05:26.922Z,97.84
2024-03-12T01:07:55.011Z,98.18
2024-03-12T01:10:22.325Z,98.26
2024-03-12T01:12:52.185Z,98.37
2024-03-12T01:15:20.441Z,98.93
2024-03-12T01:17:52.080Z,99.32
2024-03-12T01:20:21.299Z,99.84
2024-03-12T01:22:52.147Z,99.99
2024-03-12T01:25:22.097Z,100.00
2024-03-12T01:27:49.737Z,100.00
2024-03-12T01:30:21.217Z,100.00
2024-03-12T01:32:48.476Z,100.00
2024-03-12T01:35:15.669Z,100.00
2024-03-12T01:37:46.089Z,100.00
2024-03-12T01:40:22.276Z,100.00
2024-03-12T01:42:54.430Z,100.00
2024-03-12T01:45:23.660Z,100.00
2024-03-12T01:47:52.233Z,100.00
2024-03-12T01:50:20.603Z,100.00
2024-03-12T01:52:48.277Z,100.00
2024-03-12T01:55:15.676Z,100.00
2024-03-12T01:57:43.792Z,100.00
2024-03-12T02:00:13.820Z,100.00
2024-03-12T02:02:42.577Z,100.00
2024-03-12T02:05:13.555Z,100.00
2024-03-12T02:07:40.502Z,100.00
2024-03-12T02:10:08.915Z,100.00
2024-03-12T02:12:36.015Z,100.00
2024-03-12T02:15:06.434Z,100.00
2024-03-12T02:17:33.586Z,100.00
2024-03-12T02:20:00.773Z,100.00
2024-03-12T02:22:30.711Z,100.00
2024-03-12T02:24:59.635Z,100.00
2024-03-12T02:27:26.519Z,100.00
2024-03-12T02:29:54.613Z,100.00
2024-03-12T02:32:23.407Z,100.00
2024-03-12T02:34:51.110Z,100.00
2024-03-12T02:37:21.804Z,100.00
2024-03-12T02:39:48.746Z,100.00
2024-03-12T02:42:16.097Z,100.00
2024-03-12T02:44:43.214Z,100.00
2024-03-12T02:47:10.224Z,100.00
2024-03-12T02:49:37.458Z,100.00
2024-03-12T02:52:04.945Z,100.00
2024-03-12T02:54:32.051Z,100.00
2024-03-12T02:56:59.041Z,100.00
2024-03-12T02:59:27.886Z,100.00
2024-03-12T03:01:57.799Z,100.00
2024-03-12T03:04:24.706Z,100.00
2024-03-12T03:06:58.294Z,100.00
2024-03-12T03:09:26.877Z,100.00
2024-03-12T03:11:53.791Z,100.00
2024-03-12T03:14:21.247Z,100.00
2024-03-12T03:16:48.727Z,100.00
2024-03-12T03:19:15.804Z,100.00
2024-03-12T03:21:42.965Z,100.00
2024-03-12T03:24:09.769Z,100.00
2024-03-12T09:36:46.130Z,100.00
2024-03-12T09:39:13.898Z,100.00
2024-03-12T09:41:48.733Z,100.00
2024-03-12T09:44:17.823Z,100.00
2024-03-12T09:46:46.849Z,100.00
2024-03-12T09:49:16.407Z,100.00
2024-03-12T09:51:44.147Z,100.00
2024-03-12T09:54:13.224Z,100.00
2024-03-12T09:56:42.233Z,100.00
2024-03-12T09:59:09.881Z,100.00
2024-03-12T10:01:40.053Z,100.00
2024-03-12T10:04:08.088Z,100.00
2024-03-12T10:06:36.886Z,100.00
2024-03-12T10:09:09.599Z,99.64
2024-03-12T10:11:37.448Z,98.85
2024-03-12T10:14:07.464Z,97.62
2024-03-12T10:16:35.960Z,96.66
2024-03-12T10:19:13.062Z,95.89
2024-03-12T10:21:41.877Z,95.12
2024-03-12T10:24:14.980Z,94.23
2024-03-12T10:26:43.927Z,93.56
2024-03-12T10:29:13.690Z,92.96
2024-03-12T10:31:44.980Z,91.52
2024-03-12T10:34:16.985Z,90.40
2024-03-12T10:36:50.920Z,89.78
2024-03-12T10:39:29.900Z,89.10
2024-03-12T10:42:00.943Z,88.06
2024-03-12T10:44:30.404Z,86.89
2024-03-12T10:47:02.087Z,86.32
2024-03-12T10:49:30.713Z,86.05
2024-03-12T10:51:59.542Z,85.63
2024-03-12T10:54:32.066Z,85.17
2024-03-12T10:57:04.271Z,84.07
2024-03-12T10:59:33.175Z,83.60
2024-03-12T11:02:06.101Z,82.88
2024-03-12T11:04:36.721Z,82.32
2024-03-12T11:07:05.406Z,81.71
2024-03-12T11:09:35.011Z,81.29
2024-03-12T11:12:05.346Z,81.11
2024-03-12T11:14:32.953Z,80.96
2024-03-12T11:17:01.830Z,80.75
2024-03-12T11:19:30.908Z,80.28
2024-03-12T11:22:12.473Z,79.72
2024-03-12T11:24:46.369Z,79.09
2024-03-12T11:27:20.673Z,77.93
2024-03-12T11:30:00.676Z,77.22
2024-03-12T11:32:30.922Z,76.57
2024-03-12T11:34:58.652Z,76.28
2024-03-12T11:37:26.370Z,76.02
2024-03-12T11:40:25.551Z,74.93
2024-03-12T11:42:56.220Z,73.41
2024-03-12T11:45:44.108Z,72.85
2024-03-12T11:48:14.696Z,72.23
2024-03-12T11:50:43.922Z,71.57
2024-03-12T11:53:22.871Z,70.67
2024-03-12T11:56:12.281Z,69.59
2024-03-12T11:58:51.702Z,69.04
2024-03-12T12:01:23.549Z,68.10
2024-03-12T12:04:02.933Z,67.64
2024-03-12T12:06:32.690Z,66.85
2024-03-12T12:09:10.746Z,66.61
2024-03-12T12:11:39.898Z,66.45
2024-03-12T12:14:10.433Z,66.34
2024-03-12T12:16:39.341Z,66.05
2024-03-12T12:19:14.019Z,65.78
2024-03-12T12:21:46.733Z,65.46
2024-03-12T12:24:15.198Z,65.19
2024-03-12T12:26:46.925Z,64.78
2024-03-12T12:29:16.055Z,64.17
2024-03-12T12:31:43.950Z,63.92
2024-03-12T12:34:12.538Z,63.77
2024-03-12T12:36:45.241Z,63.57
2024-03-12T12:39:13.733Z,63.33
2024-03-12T12:41:45.144Z,63.18
2024-03-12T12:44:18.523Z,62.95
2024-03-12T12:46:49.584Z,62.74
2024-03-12T12:49:18.933Z,62.47
2024-03-12T12:51:48.080Z,62.22
2024-03-12T12:54:20.263Z,62.09
2024-03-12T12:56:51.066Z,61.78
2024-03-12T12:59:24.680Z,61.51
2024-03-12T13:01:53.046Z,61.22
2024-03-12T13:04:28.709Z,61.00
2024-03-12T13:06:58.303Z,60.95
2024-03-12T13:09:35.382Z,60.77
2024-03-12T13:12:09.403Z,60.61
2024-03-12T13:14:38.608Z,60.31
2024-03-12T13:17:10.474Z,60.04
2024-03-12T13:19:38.377Z,59.95
2024-03-12T13:22:13.350Z,59.76
2024-03-12T13:24:45.593Z,59.40
2024-03-12T13:27:15.323Z,59.10
2024-03-12T13:29:46.793Z,58.75
2024-03-12T13:32:14.488Z,58.47
2024-03-12T13:34:42.064Z,58.48
2024-03-12T13:37:09.861Z,58.18
2024-03-12T13:39:37.560Z,58.13
2024-03-12T13:42:06.659Z,57.79
2024-03-12T13:44:34.506Z,57.38
2024-03-12T13:47:04.515Z,57.18
2024-03-12T13:49:32.663Z,56.98
2024-03-12T13:52:00.874Z,56.63
2024-03-12T13:54:28.658Z,56.42
2024-03-12T13:56:56.265Z,56.29
2024-03-12T13:59:24.112Z,56.06
2024-03-12T14:01:52.859Z,55.92
2024-03-12T14:04:20.632Z,55.86
2024-03-12T14:06:48.963Z,55.65
2024-03-12T14:09:16.993Z,55.49
2024-03-12T14:11:44.802Z,55.36
2024-03-12T14:14:12.623Z,55.33
2024-03-12T14:16:40.779Z,55.28
2024-03-12T14:19:08.616Z,55.06
2024-03-12T14:21:37.251Z,54.84
2024-03-12T14:24:06.078Z,54.68
2024-03-12T14:26:34.016Z,54.56
2024-03-12T14:29:01.624Z,54.51
2024-03-12T14:31:29.993Z,54.44
2024-03-12T14:33:57.753Z,54.39
2024-03-12T14:36:25.819Z,54.28
2024-03-12T14:38:55.149Z,54.17
2024-03-12T14:41:24.306Z,54.06
2024-03-12T14:43:52.058Z,54.07
2024-03-12T14:46:20.217Z,54.00
2024-03-12T14:48:48.156Z,53.79
2024-03-12T14:51:15.981Z,53.83
2024-03-12T14:53:43.761Z,53.57
2024-03-12T14:56:11.420Z,53.56
2024-03-12T14:58:38.992Z,53.41
2024-03-12T15:01:07.816Z,53.31
2024-03-12T15:03:37.628Z,53.31
2024-03-12T15:06:05.398Z,53.29
2024-03-12T15:08:33.061Z,53.20
2024-03-12T15:11:00.660Z,52.95
2024-03-12T15:13:29.077Z,53.07
2024-03-12T15:15:56.764Z,52.94
2024-03-12T15:18:24.715Z,52.92
2024-03-12T15:20:53.441Z,52.79
2024-03-12T15:23:22.027Z,52.81
2024-03-12T15:25:50.349Z,52.80
2024-03-12T15:28:18.124Z,52.87
2024-03-12T15:30:49.065Z,52.65
2024-03-12T15:33:17.479Z,52.63
2024-03-12T15:35:46.830Z,52.61
2024-03-12T15:38:14.991Z,52.33
2024-03-12T15:40:42.736Z,52.36
2024-03-12T15:43:10.674Z,52.27
2024-03-12T15:45:38.716Z,52.23
2024-03-12T15:48:09.104Z,52.37
2024-03-12T15:50:39.840Z,52.21
2024-03-12T15:53:07.631Z,52.12
2024-03-12T15:55:37.185Z,52.06
2024-03-12T15:58:05.123Z,52.21
2024-03-12T16:00:35.546Z,52.06
2024-03-12T16:03:03.628Z,52.10
2024-03-12T16:05:31.888Z,52.03
2024-03-12T16:08:01.731Z,52.03
2024-03-12T16:10:31.117Z,52.04
2024-03-12T16:12:58.833Z,52.13
2024-03-12T16:15:27.449Z,52.14
2024-03-12T16:17:56.408Z,52.07
2024-03-12T16:20:24.390Z,52.14
2024-03-12T16:22:52.009Z,52.06
2024-03-12T16:25:19.733Z,51.91
2024-03-12T16:27:47.654Z,51.86
2024-03-12T16:30:16.307Z,51.69
2024-03-12T16:32:44.687Z,51.82
2024-03-12T16:35:12.740Z,51.87
2024-03-12T16:37:40.422Z,51.82
2024-03-12T16:40:09.651Z,51.89
2024-03-12T16:42:37.750Z,51.78
2024-03-12T16:45:06.999Z,51.72
2024-03-12T16:47:35.253Z,51.69
2024-03-12T16:50:09.578Z,51.70
2024-03-12T16:52:40.376Z,51.81
2024-03-12T16:55:08.913Z,51.77
2024-03-12T16:57:37.093Z,51.87
2024-03-12T17:00:07.465Z,51.84
2024-03-12T17:02:43.592Z,51.84
2024-03-12T17:05:13.337Z,51.74
2024-03-12T17:07:41.724Z,51.94
2024-03-12T17:10:09.922Z,52.03
2024-03-12T17:12:37.922Z,51.96
2024-03-12T17:15:06.345Z,52.08
2024-03-12T17:17:34.753Z,52.13
2024-03-12T17:20:06.108Z,52.15
2024-03-12T17:22:34.168Z,52.11
2024-03-12T17:25:02.317Z,52.07
2024-03-12T17:27:32.351Z,52.20
2024-03-12T17:30:03.250Z,52.36
2024-03-12T17:32:31.977Z,52.28
2024-03-12T17:35:01.043Z,52.39
2024-03-12T17:37:35.445Z,52.52
2024-03-12T17:40:13.779Z,52.57
2024-03-12T17:42:45.824Z,52.61
2024-03-12T17:45:14.958Z,52.66
2024-03-12T17:47:52.666Z,52.65
2024-03-12T17:50:22.756Z,52.84
2024-03-12T17:52:58.948Z,52.90
2024-03-12T17:55:28.036Z,52.92
2024-03-12T17:57:56.419Z,52.99
2024-03-12T18:00:25.568Z,53.11
2024-03-12T18:02:56.172Z,53.06
2024-03-12T18:05:24.132Z,53.10
2024-03-12T18:07:53.599Z,53.14
2024-03-12T18:10:26.269Z,53.16
2024-03-12T18:12:54.482Z,53.28
2024-03-12T18:15:24.929Z,53.39
2024-03-12T18:17:53.577Z,53.35
2024-03-12T18:20:25.672Z,53.43
2024-03-12T18:22:54.450Z,53.43
2024-03-12T18:25:22.598Z,53.44
2024-03-12T18:27:57.170Z,53.48
2024-03-12T18:30:26.203Z,53.48
2024-03-12T18:32:55.775Z,53.56
2024-03-12T18:35:24.044Z,53.53
2024-03-12T18:37:52.307Z,53.64
2024-03-12T18:40:21.325Z,53.75
2024-03-12T18:42:49.812Z,53.75
2024-03-12T18:45:19.880Z,53.71
2024-03-12T18:47:49.573Z,53.69
2024-03-12T18:50:18.609Z,53.80
2024-03-12T18:52:46.809Z,53.69
2024-03-12T18:55:15.069Z,53.85
2024-03-12T18:57:44.796Z,53.79
2024-03-12T19:00:20.277Z,53.81
2024-03-12T19:02:49.816Z,53.84
2024-03-12T19:05:21.929Z,53.95
2024-03-12T19:07:52.340Z,53.99
2024-03-12T19:10:21.371Z,54.08
2024-03-12T19:12:50.748Z,54.09
2024-03-12T19:15:26.852Z,54.05
2024-03-12T19:23:00.377Z,54.05
2024-03-12T19:25:28.182Z,54.09
2024-03-12T19:27:56.393Z,54.15
2024-03-12T19:30:26.145Z,54.22
2024-03-12T19:32:54.627Z,54.17
2024-03-12T19:35:22.996Z,54.12
2024-03-12T19:37:51.018Z,54.02
2024-03-12T19:40:22.986Z,54.06
2024-03-12T19:42:51.490Z,54.22
2024-03-12T19:45:24.354Z,54.26
2024-03-12T19:47:52.843Z,54.25
2024-03-12T19:50:24.257Z,54.22
2024-03-12T19:52:54.290Z,54.47
2024-03-12T19:55:27.070Z,54.56
2024-03-12T19:57:56.740Z,54.38
2024-03-12T20:00:27.384Z,54.58
2024-03-12T20:02:57.922Z,54.66
2024-03-12T20:05:31.842Z,54.76
2024-03-12T20:08:05.914Z,54.84
2024-03-12T20:10:34.114Z,54.89
2024-03-12T20:13:05.828Z,55.10
2024-03-12T20:15:34.399Z,55.15
2024-03-12T20:18:02.618Z,55.29
2024-03-12T20:20:30.680Z,55.45
2024-03-12T20:22:59.950Z,55.62
2024-03-12T20:25:27.804Z,55.69
2024-03-12T20:27:56.707Z,55.75
2024-03-12T20:30:31.292Z,55.92
2024-03-12T20:33:00.217Z,55.93
2024-03-12T20:35:29.307Z,56.16
2024-03-12T20:37:57.220Z,56.09
2024-03-12T20:40:27.162Z,56.33
2024-03-12T20:42:59.923Z,56.32
2024-03-12T20:45:28.672Z,56.51
2024-03-12T20:47:56.344Z,56.56
2024-03-12T20:50:23.997Z,56.74
2024-03-12T20:52:52.223Z,56.80
2024-03-12T20:55:20.431Z,56.86
2024-03-12T20:57:49.372Z,56.70
2024-03-12T21:00:19.732Z,57.14
2024-03-12T21:02:48.816Z,57.09
2024-03-12T21:05:17.597Z,57.21
2024-03-12T21:07:46.288Z,57.35
2024-03-12T21:10:14.153Z,57.31
2024-03-12T21:12:46.506Z,57.23
2024-03-12T21:15:17.375Z,57.20
2024-03-12T21:17:46.281Z,57.60
2024-03-12T21:20:25.993Z,57.55
2024-03-12T21:22:53.694Z,57.55
2024-03-12T21:25:21.692Z,57.76
2024-03-12T21:27:49.587Z,57.81
2024-03-12T21:30:20.329Z,57.92
2024-03-12T21:32:48.996Z,57.89
2024-03-12T21:35:17.036Z,57.96
2024-03-12T21:37:46.149Z,58.38
2024-03-12T21:40:13.862Z,58.26
2024-03-12T21:42:44.069Z,58.27
2024-03-12T21:45:13.071Z,58.68
2024-03-12T21:47:46.144Z,58.72
2024-03-12T21:50:16.438Z,58.75
2024-03-12T21:52:44.586Z,58.81
2024-03-12T21:55:12.676Z,59.08
2024-03-12T21:57:44.682Z,59.20
2024-03-12T22:00:20.626Z,59.29
2024-03-12T22:02:49.834Z,59.59
2024-03-12T22:05:20.980Z,59.88
2024-03-12T22:07:51.019Z,59.87
2024-03-12T22:10:22.353Z,59.97
2024-03-12T22:12:50.032Z,60.30
2024-03-12T22:15:17.616Z,60.43
2024-03-12T22:17:51.293Z,60.76
2024-03-12T22:20:19.962Z,60.80
2024-03-12T22:22:48.902Z,60.95
2024-03-12T22:25:20.963Z,61.08
2024-03-12T22:27:49.664Z,61.37
2024-03-12T22:30:18.503Z,61.37
2024-03-12T22:32:47.415Z,61.52
2024-03-12T22:35:15.147Z,61.50
2024-03-12T22:37:44.906Z,61.84
2024-03-12T22:40:14.014Z,61.79
2024-03-12T22:42:42.840Z,61.98
2024-03-12T22:45:12.824Z,62.08
2024-03-12T22:47:41.218Z,62.00
2024-03-12T22:50:10.044Z,62.08
2024-03-12T22:52:37.922Z,62.26
2024-03-12T22:55:07.453Z,62.33
2024-03-12T22:57:39.673Z,62.53
2024-03-12T23:00:36.050Z,62.30
2024-03-12T23:03:04.712Z,62.71
2024-03-12T23:05:36.106Z,62.45
2024-03-12T23:08:08.044Z,62.79
2024-03-12T23:10:37.079Z,62.86
2024-03-12T23:13:05.216Z,62.90
2024-03-12T23:15:36.367Z,63.14
2024-03-12T23:18:04.930Z,63.23
2024-03-12T23:20:33.581Z,63.34
2024-03-12T23:23:01.548Z,63.30
2024-03-12T23:25:30.320Z,63.45
2024-03-12T23:27:58.228Z,63.50
2024-03-12T23:30:26.997Z,63.53
2024-03-12T23:32:59.461Z,63.79
2024-03-12T23:35:30.835Z,63.76
2024-03-12T23:37:58.424Z,64.03
2024-03-12T23:40:27.241Z,63.83
2024-03-12T23:42:56.007Z,64.20
2024-03-12T23:45:24.180Z,64.23
2024-03-12T23:47:53.055Z,64.24
2024-03-12T23:50:20.891Z,64.23
2024-03-12T23:52:50.185Z,64.37
2024-03-12T23:55:17.945Z,64.24
2024-03-12T23:57:45.640Z,64.51
